Time;durP1;ratioP1;P1;durP2;ratioP2;P2;SDS_P1;SDS_P2;PMS_P1;PMS_P2;Temp;Humidity;BMP_temperature;BMP_pressure;BME280_temperature;BME280_humidity;BME280_pressure;Samples;Min_cycle;Max_cycle;Signal;HPM_P1;HPM_P2
2023/08/03 00:00:55;;;;;;;1.33;0.60;;;17.30;99.90;;;;;;5034393;28;20438;-73
2023/08/03 00:03:22;;;;;;;1.40;0.60;;;17.30;99.80;;;;;;5020688;28;20431;-73
2023/08/03 00:05:49;;;;;;;1.33;0.50;;;17.30;99.90;;;;;;5028128;28;20480;-72
2023/08/03 00:08:15;;;;;;;3.00;0.90;;;17.30;99.90;;;;;;5031100;28;20442;-72
2023/08/03 00:10:42;;;;;;;1.80;0.60;;;17.30;99.60;;;;;;5031045;28;20435;-71
2023/08/03 00:13:09;;;;;;;1.30;0.60;;;17.20;99.70;;;;;;5033975;28;20433;-72
2023/08/03 00:15:37;;;;;;;1.70;0.70;;;17.30;98.50;;;;;;5029609;28;20438;-71
2023/08/03 00:18:04;;;;;;;1.92;0.60;;;17.40;97.80;;;;;;5074239;22;20435;-76
2023/08/03 00:20:30;;;;;;;2.28;0.57;;;17.50;98.60;;;;;;5053074;28;20429;-75
2023/08/03 00:22:57;;;;;;;1.47;0.80;;;17.50;98.50;;;;;;5063884;28;20422;-76
2023/08/03 00:25:24;;;;;;;2.00;0.50;;;17.50;98.50;;;;;;5066249;28;20435;-73
2023/08/03 00:27:51;;;;;;;1.23;0.90;;;17.50;98.70;;;;;;5061158;28;20784;-74
2023/08/03 00:30:18;;;;;;;1.40;0.60;;;17.50;98.20;;;;;;5068854;28;20435;-73
2023/08/03 00:32:46;;;;;;;1.50;0.60;;;17.50;97.90;;;;;;5071283;28;20486;-73
2023/08/03 00:35:12;;;;;;;1.20;0.60;;;17.60;98.50;;;;;;5066274;28;20514;-73
2023/08/03 00:37:39;;;;;;;1.10;0.60;;;17.50;98.80;;;;;;5068789;28;20427;-72
2023/08/03 00:40:07;;;;;;;1.50;0.50;;;17.60;97.90;;;;;;5068038;28;20436;-76
2023/08/03 00:42:34;;;;;;;1.15;0.50;;;17.60;97.50;;;;;;5066587;28;20431;-76
2023/08/03 00:45:01;;;;;;;1.60;0.52;;;17.70;98.20;;;;;;5071910;28;20512;-73
2023/08/03 00:47:28;;;;;;;1.38;0.50;;;17.70;97.60;;;;;;5066016;28;20530;-75
2023/08/03 00:49:56;;;;;;;1.00;0.50;;;17.70;97.20;;;;;;5066237;28;20430;-74
2023/08/03 00:52:25;;;;;;;0.90;0.40;;;17.70;98.40;;;;;;5072635;28;20484;-75
2023/08/03 00:54:52;;;;;;;1.67;0.60;;;17.70;98.80;;;;;;5070126;28;20422;-74
2023/08/03 00:57:19;;;;;;;1.58;0.75;;;17.60;98.00;;;;;;5072118;28;20516;-73
2023/08/03 00:59:46;;;;;;;1.42;0.55;;;17.60;98.00;;;;;;5071534;28;20435;-73
2023/08/03 01:02:11;;;;;;;2.50;0.90;;;17.60;97.10;;;;;;5068675;28;20438;-72
2023/08/03 01:04:38;;;;;;;1.45;0.52;;;17.70;96.40;;;;;;5066978;28;20451;-73
2023/08/03 01:07:06;;;;;;;1.17;0.50;;;17.80;95.80;;;;;;5068341;28;20833;-73
2023/08/03 01:09:33;;;;;;;1.98;0.70;;;17.90;95.10;;;;;;5066468;28;20407;-73
2023/08/03 01:12:00;;;;;;;1.67;0.50;;;18.00;94.50;;;;;;5068858;28;20661;-72
2023/08/03 01:14:27;;;;;;;1.13;0.40;;;18.10;93.70;;;;;;5068506;28;20571;-72
2023/08/03 01:16:53;;;;;;;1.67;0.50;;;18.10;93.60;;;;;;5066219;28;20458;-72
2023/08/03 01:19:20;;;;;;;1.20;0.50;;;18.10;93.80;;;;;;5065895;28;20438;-74
2023/08/03 01:21:48;;;;;;;1.70;0.70;;;18.10;94.10;;;;;;5066217;28;20435;-72
2023/08/03 01:24:16;;;;;;;1.70;0.52;;;18.10;93.60;;;;;;5074357;28;20426;-72
2023/08/03 01:26:44;;;;;;;1.20;0.50;;;18.10;93.60;;;;;;5065294;28;20767;-72
2023/08/03 01:29:11;;;;;;;1.23;0.50;;;18.10;94.20;;;;;;5066348;28;20926;-73
2023/08/03 01:31:38;;;;;;;2.20;1.00;;;18.10;93.70;;;;;;5070828;28;20442;-72
2023/08/03 01:34:04;;;;;;;1.10;0.60;;;18.10;93.60;;;;;;5065185;28;20411;-73
2023/08/03 01:36:32;;;;;;;2.40;0.60;;;18.10;93.40;;;;;;5069568;28;20438;-74
2023/08/03 01:39:07;;;;;;;1.85;0.60;;;18.10;93.30;;;;;;5069813;28;20416;-76
2023/08/03 01:41:36;;;;;;;1.80;0.57;;;18.10;93.60;;;;;;5067490;28;20513;-74
2023/08/03 01:44:25;;;;;;;2.30;0.60;;;18.00;94.00;;;;;;5075416;28;20432;-71
2023/08/03 01:46:52;;;;;;;1.92;0.70;;;18.00;94.20;;;;;;5064590;28;20441;-74
2023/08/03 01:49:19;;;;;;;1.70;0.60;;;17.90;94.60;;;;;;5069707;28;20443;-71
2023/08/03 01:51:46;;;;;;;2.15;0.73;;;17.80;94.70;;;;;;5067547;28;20430;-72
2023/08/03 01:54:13;;;;;;;1.50;0.80;;;17.80;95.00;;;;;;5068342;28;20433;-72
2023/08/03 01:56:42;;;;;;;2.20;0.60;;;17.80;95.40;;;;;;5065756;28;20423;-71
2023/08/03 01:59:08;;;;;;;2.42;0.90;;;17.70;97.30;;;;;;5075779;28;20535;-72
2023/08/03 02:01:35;;;;;;;1.58;0.70;;;17.50;98.10;;;;;;5069780;28;20510;-73
2023/08/03 02:04:02;;;;;;;1.80;0.77;;;17.30;98.70;;;;;;5063216;28;20432;-72
2023/08/03 02:06:29;;;;;;;2.60;0.70;;;17.30;99.60;;;;;;5064632;28;20438;-72
2023/08/03 02:08:56;;;;;;;2.10;0.70;;;17.20;99.40;;;;;;5070405;28;20439;-72
2023/08/03 02:11:22;;;;;;;2.10;1.10;;;17.20;99.50;;;;;;5065349;28;20441;-72
2023/08/03 02:13:50;;;;;;;1.98;0.80;;;17.30;99.90;;;;;;5069970;28;20427;-73
2023/08/03 02:16:17;;;;;;;1.20;0.60;;;17.20;99.70;;;;;;5069813;28;20433;-73
2023/08/03 02:18:44;;;;;;;1.60;0.80;;;17.30;99.40;;;;;;5071318;28;20474;-74
2023/08/03 02:21:10;;;;;;;1.92;0.65;;;17.30;99.10;;;;;;5065620;28;20435;-72
2023/08/03 02:23:37;;;;;;;1.70;0.70;;;17.30;99.10;;;;;;5068495;28;20442;-73
2023/08/03 02:26:04;;;;;;;1.40;0.60;;;17.30;99.30;;;;;;5068864;28;20898;-72
2023/08/03 02:28:31;;;;;;;1.53;0.60;;;17.20;99.00;;;;;;5066908;28;20435;-72
2023/08/03 02:30:59;;;;;;;2.03;0.70;;;17.20;99.20;;;;;;5068793;28;20568;-73
2023/08/03 02:33:26;;;;;;;1.95;0.95;;;17.10;99.30;;;;;;5068028;28;20427;-72
2023/08/03 02:35:53;;;;;;;1.65;0.77;;;17.10;99.20;;;;;;5064448;28;20491;-74
2023/08/03 02:38:20;;;;;;;1.60;0.60;;;17.10;99.50;;;;;;5067937;28;20441;-74
2023/08/03 02:40:46;;;;;;;3.30;0.60;;;17.00;99.40;;;;;;5073576;28;20586;-71
2023/08/03 02:43:13;;;;;;;1.35;0.68;;;17.10;99.50;;;;;;5064422;28;20767;-73
2023/08/03 02:45:40;;;;;;;2.60;0.60;;;17.10;99.30;;;;;;5074389;28;20503;-72
2023/08/03 02:48:08;;;;;;;2.10;0.65;;;17.10;99.50;;;;;;5071435;28;20409;-72
2023/08/03 02:50:34;;;;;;;1.80;0.68;;;17.10;99.20;;;;;;5063879;28;20487;-74
2023/08/03 02:53:01;;;;;;;1.77;0.60;;;17.20;98.80;;;;;;5064580;28;20415;-71
2023/08/03 02:55:28;;;;;;;1.90;0.90;;;17.20;98.90;;;;;;5070141;28;20427;-73
2023/08/03 02:57:54;;;;;;;1.00;0.60;;;17.20;99.20;;;;;;5063882;28;20429;-72
2023/08/03 03:00:21;;;;;;;2.13;0.93;;;17.20;98.90;;;;;;5064305;28;20412;-74
2023/08/03 03:02:48;;;;;;;2.00;0.70;;;17.20;99.20;;;;;;5064800;28;20473;-72
2023/08/03 03:05:16;;;;;;;0.90;0.40;;;17.20;99.40;;;;;;5068345;28;20470;-72
2023/08/03 03:07:43;;;;;;;1.15;0.50;;;17.20;99.20;;;;;;5064721;28;20434;-73
2023/08/03 03:10:10;;;;;;;1.20;0.40;;;17.20;99.40;;;;;;5067214;28;20457;-72
2023/08/03 03:12:37;;;;;;;1.00;0.60;;;17.20;99.10;;;;;;5065076;28;20994;-72
2023/08/03 03:15:04;;;;;;;1.00;0.43;;;17.30;99.10;;;;;;5063705;28;20807;-72
2023/08/03 03:17:31;;;;;;;0.88;0.45;;;17.30;99.20;;;;;;5063957;28;20420;-72
2023/08/03 03:19:58;;;;;;;1.90;0.50;;;17.30;99.30;;;;;;5064066;28;20415;-71
2023/08/03 03:22:26;;;;;;;1.30;0.40;;;17.30;99.20;;;;;;5064066;28;20487;-74
2023/08/03 03:24:53;;;;;;;1.40;0.50;;;17.30;99.20;;;;;;5063954;28;20862;-74
2023/08/03 03:27:19;;;;;;;0.90;0.47;;;17.30;99.40;;;;;;5063313;28;20428;-71
2023/08/03 03:29:46;;;;;;;1.60;0.50;;;17.30;99.90;;;;;;5064001;28;20416;-73
2023/08/03 03:32:13;;;;;;;1.20;0.50;;;17.20;99.90;;;;;;5064179;28;20936;-74
2023/08/03 03:34:39;;;;;;;1.25;0.70;;;16.90;99.90;;;;;;5071594;28;20405;-73
2023/08/03 03:37:06;;;;;;;1.00;0.50;;;16.80;99.90;;;;;;5067217;28;20442;-72
2023/08/03 03:39:34;;;;;;;1.20;0.50;;;16.70;99.90;;;;;;5068637;28;20418;-72
2023/08/03 03:42:01;;;;;;;1.30;0.52;;;16.60;99.90;;;;;;5071645;28;20464;-75
2023/08/03 03:44:28;;;;;;;1.20;0.50;;;16.70;99.90;;;;;;5080639;28;20419;-71
2023/08/03 03:46:55;;;;;;;1.10;0.50;;;16.60;99.90;;;;;;5067056;28;20925;-72
2023/08/03 03:49:21;;;;;;;1.20;0.40;;;16.70;99.90;;;;;;5067414;28;20415;-71
2023/08/03 03:51:48;;;;;;;1.50;0.47;;;16.80;99.90;;;;;;5066969;28;20423;-71
2023/08/03 03:54:15;;;;;;;0.82;0.40;;;16.80;99.90;;;;;;5067146;28;20490;-74
2023/08/03 03:56:43;;;;;;;1.15;0.50;;;16.90;99.90;;;;;;5069617;28;20889;-71
2023/08/03 03:59:09;;;;;;;1.48;0.50;;;17.00;99.90;;;;;;5067079;28;20412;-72
2023/08/03 04:01:36;;;;;;;1.40;0.40;;;17.00;99.90;;;;;;5073230;28;20446;-71
2023/08/03 04:04:03;;;;;;;1.10;0.50;;;17.00;99.90;;;;;;5067156;28;20834;-72
2023/08/03 04:06:31;;;;;;;0.95;0.40;;;17.10;99.90;;;;;;5067204;28;20472;-73
2023/08/03 04:08:57;;;;;;;1.10;0.43;;;17.00;99.90;;;;;;5067359;28;20411;-74
2023/08/03 04:11:24;;;;;;;1.20;0.40;;;17.00;99.90;;;;;;5066641;28;20431;-73
2023/08/03 04:13:52;;;;;;;1.20;0.50;;;16.90;99.90;;;;;;5071333;28;20438;-74
2023/08/03 04:16:19;;;;;;;0.80;0.30;;;16.80;99.90;;;;;;5064891;28;20885;-74
2023/08/03 04:18:45;;;;;;;0.80;0.40;;;16.70;99.90;;;;;;5072048;28;20414;-71
2023/08/03 04:21:12;;;;;;;1.30;0.47;;;16.70;99.90;;;;;;5067661;28;20439;-71
2023/08/03 04:23:39;;;;;;;1.30;0.80;;;16.60;99.90;;;;;;5072787;28;20980;-71
2023/08/03 04:26:07;;;;;;;1.10;0.40;;;16.50;99.90;;;;;;5065358;28;20450;-71
2023/08/03 04:28:34;;;;;;;1.00;0.40;;;16.60;99.90;;;;;;5066360;28;20853;-73
2023/08/03 04:31:02;;;;;;;1.00;0.40;;;16.50;99.90;;;;;;5069133;28;20429;-71
2023/08/03 04:33:28;;;;;;;1.20;0.40;;;16.50;99.90;;;;;;5065967;28;20462;-71
2023/08/03 04:35:55;;;;;;;1.30;0.40;;;16.40;99.90;;;;;;5067307;28;20801;-72
2023/08/03 04:38:22;;;;;;;1.08;0.40;;;16.40;99.90;;;;;;5070884;28;20435;-72
2023/08/03 04:40:49;;;;;;;0.95;0.40;;;16.30;99.90;;;;;;5066793;28;20407;-72
2023/08/03 04:43:15;;;;;;;1.07;0.40;;;16.30;99.90;;;;;;5072431;28;20872;-72
2023/08/03 04:45:42;;;;;;;1.30;0.40;;;16.30;99.90;;;;;;5076507;28;20537;-73
2023/08/03 04:48:10;;;;;;;1.45;0.30;;;16.20;99.90;;;;;;5081482;28;20431;-71
2023/08/03 04:50:37;;;;;;;1.23;0.40;;;16.20;99.90;;;;;;5073969;28;20447;-71
2023/08/03 04:53:04;;;;;;;1.70;0.50;;;16.20;99.90;;;;;;5067162;28;20870;-73
2023/08/03 04:55:31;;;;;;;1.20;0.40;;;16.20;99.90;;;;;;5072842;28;20420;-72
2023/08/03 04:57:57;;;;;;;1.00;0.40;;;16.30;99.90;;;;;;5067814;28;20454;-72
2023/08/03 05:00:24;;;;;;;2.00;0.50;;;16.30;99.90;;;;;;5066271;28;20431;-73
2023/08/03 05:02:51;;;;;;;1.30;0.40;;;16.30;99.90;;;;;;5066025;28;21040;-73
2023/08/03 05:05:19;;;;;;;1.02;0.45;;;16.40;99.90;;;;;;5068640;28;20426;-72
2023/08/03 05:07:46;;;;;;;1.20;0.40;;;16.40;99.90;;;;;;5065989;28;20866;-74
2023/08/03 05:10:12;;;;;;;1.23;0.40;;;16.40;99.90;;;;;;5067778;28;20446;-72
2023/08/03 05:12:41;;;;;;;0.98;0.50;;;16.40;99.90;;;;;;5072476;28;20936;-72
2023/08/03 05:15:09;;;;;;;1.15;0.50;;;16.50;99.90;;;;;;5074242;28;20473;-73
2023/08/03 05:17:36;;;;;;;1.55;0.60;;;16.60;99.90;;;;;;5077697;28;20438;-73
2023/08/03 05:20:03;;;;;;;1.40;0.60;;;16.70;99.90;;;;;;5074843;28;20878;-73
2023/08/03 05:22:31;;;;;;;1.58;0.50;;;16.70;99.90;;;;;;5070657;28;20485;-73
2023/08/03 05:24:58;;;;;;;1.00;0.40;;;16.80;99.90;;;;;;5070968;28;20883;-73
2023/08/03 05:27:25;;;;;;;1.50;0.40;;;16.80;99.90;;;;;;5064836;28;20431;-72
2023/08/03 05:29:52;;;;;;;2.45;0.50;;;16.90;99.90;;;;;;5068497;28;20436;-72
2023/08/03 05:32:19;;;;;;;1.60;0.50;;;16.90;99.90;;;;;;5065555;28;20427;-72
2023/08/03 05:34:45;;;;;;;1.00;0.40;;;17.00;99.90;;;;;;5065189;28;20414;-73
2023/08/03 05:37:15;;;;;;;0.90;0.40;;;17.00;99.90;;;;;;5068802;28;20431;-72
2023/08/03 05:39:44;;;;;;;0.80;0.30;;;17.10;99.90;;;;;;5065118;28;20517;-73
2023/08/03 05:42:14;;;;;;;1.07;0.40;;;17.10;99.90;;;;;;5065098;28;20506;-73
2023/08/03 05:44:40;;;;;;;0.90;0.30;;;17.10;99.90;;;;;;5074889;28;20444;-73
2023/08/03 05:47:11;;;;;;;1.70;0.50;;;17.10;99.90;;;;;;5067755;28;20427;-71
2023/08/03 05:49:38;;;;;;;1.00;0.30;;;17.20;99.90;;;;;;5066132;28;20434;-71
2023/08/03 05:52:06;;;;;;;1.30;0.30;;;17.20;99.90;;;;;;5065345;28;20874;-71
2023/08/03 05:54:33;;;;;;;1.70;0.40;;;17.20;99.90;;;;;;5072188;28;20425;-71
2023/08/03 05:57:01;;;;;;;1.02;0.40;;;17.20;99.90;;;;;;5065410;28;20420;-71
2023/08/03 05:59:28;;;;;;;1.10;0.40;;;17.20;99.90;;;;;;5084436;28;20478;-71
2023/08/03 06:01:55;;;;;;;0.80;0.40;;;17.20;99.90;;;;;;5075235;28;20417;-71
2023/08/03 06:04:22;;;;;;;1.58;0.40;;;17.30;99.90;;;;;;5073540;28;20411;-73
2023/08/03 06:06:49;;;;;;;1.40;0.40;;;17.30;99.90;;;;;;5071889;28;20435;-74
2023/08/03 06:09:15;;;;;;;1.55;0.40;;;17.30;99.90;;;;;;5076110;28;20415;-74
2023/08/03 06:11:42;;;;;;;1.10;0.40;;;17.30;99.90;;;;;;5073186;28;20938;-71
2023/08/03 06:14:13;;;;;;;1.30;0.47;;;17.30;99.90;;;;;;5072546;28;20431;-71
2023/08/03 06:16:40;;;;;;;1.10;0.40;;;17.30;99.90;;;;;;5067959;28;20517;-71
2023/08/03 06:19:10;;;;;;;1.30;0.45;;;17.30;99.90;;;;;;5066827;28;20839;-72
2023/08/03 06:21:36;;;;;;;1.30;0.50;;;17.30;99.90;;;;;;5065925;28;20435;-71
2023/08/03 06:24:03;;;;;;;1.42;0.40;;;17.30;99.90;;;;;;5081838;22;20877;-75
2023/08/03 06:26:32;;;;;;;1.50;1.00;;;17.20;99.90;;;;;;5040689;28;20525;-63
2023/08/03 06:29:01;;;;;;;1.17;0.70;;;17.30;99.90;;;;;;5037082;28;21200;-63
2023/08/03 06:31:35;;;;;;;1.20;0.60;;;17.40;99.90;;;;;;5043165;28;20450;-67
2023/08/03 06:34:03;;;;;;;1.30;0.50;;;17.50;99.90;;;;;;5048495;28;20471;-66
2023/08/03 06:36:30;;;;;;;1.00;0.50;;;17.50;99.90;;;;;;5034342;28;20516;-67
2023/08/03 06:38:57;;;;;;;1.10;0.50;;;17.50;99.90;;;;;;5025894;28;20433;-66
2023/08/03 06:41:25;;;;;;;2.20;0.60;;;17.50;99.90;;;;;;5027185;28;20440;-67
2023/08/03 06:43:52;;;;;;;2.00;0.60;;;17.50;99.90;;;;;;5027464;28;20440;-66
2023/08/03 06:46:19;;;;;;;1.35;0.50;;;17.50;99.90;;;;;;5035657;28;20427;-66
2023/08/03 06:48:48;;;;;;;1.58;0.70;;;17.50;99.90;;;;;;5034336;28;20434;-66
2023/08/03 06:51:15;;;;;;;1.70;0.52;;;17.50;99.90;;;;;;5034739;28;20428;-66
2023/08/03 06:53:42;;;;;;;1.50;0.70;;;17.60;99.90;;;;;;5040722;28;20819;-66
2023/08/03 06:56:09;;;;;;;1.75;0.60;;;17.40;99.90;;;;;;5019917;28;20471;-73
2023/08/03 06:58:35;;;;;;;1.58;0.60;;;17.10;99.90;;;;;;5026548;28;20434;-73
2023/08/03 07:01:02;;;;;;;2.00;0.75;;;16.80;99.90;;;;;;5031240;28;20435;-73
2023/08/03 07:03:29;;;;;;;1.77;0.80;;;16.60;99.90;;;;;;5029127;28;20414;-72
2023/08/03 07:05:58;;;;;;;13.50;2.70;;;16.40;99.90;;;;;;5042376;28;20436;-72
2023/08/03 07:08:25;;;;;;;4.70;0.98;;;16.30;99.90;;;;;;5039036;28;20435;-72
2023/08/03 07:10:51;;;;;;;2.03;0.90;;;16.20;99.90;;;;;;5042022;28;20409;-72
2023/08/03 07:13:18;;;;;;;13.45;2.80;;;16.10;99.90;;;;;;5040581;28;20420;-73
2023/08/03 07:15:45;;;;;;;3.47;1.33;;;16.00;99.90;;;;;;5034036;28;20441;-73
2023/08/03 07:18:11;;;;;;;3.05;1.20;;;15.90;99.90;;;;;;5039865;28;20445;-73
2023/08/03 07:20:38;;;;;;;2.88;1.20;;;15.90;99.90;;;;;;5034513;28;20428;-75
2023/08/03 07:23:07;;;;;;;2.92;1.10;;;15.80;99.90;;;;;;5027081;28;20444;-73
2023/08/03 07:25:34;;;;;;;2.67;1.20;;;15.80;99.90;;;;;;5018487;28;20442;-74
2023/08/03 07:28:01;;;;;;;3.17;2.00;;;15.80;99.90;;;;;;5026194;28;20805;-73
2023/08/03 07:30:28;;;;;;;4.80;1.60;;;15.70;99.90;;;;;;5035296;28;20505;-72
2023/08/03 07:32:57;;;;;;;3.30;1.30;;;15.70;99.90;;;;;;5033205;28;20441;-73
2023/08/03 07:35:24;;;;;;;2.90;1.30;;;15.70;99.90;;;;;;5025400;28;20426;-72
2023/08/03 07:37:50;;;;;;;2.30;1.10;;;15.70;99.90;;;;;;5028098;28;20434;-74
2023/08/03 07:40:18;;;;;;;2.08;1.10;;;15.60;99.90;;;;;;5025928;28;20430;-73
2023/08/03 07:42:45;;;;;;;1.30;0.90;;;15.70;99.90;;;;;;5023634;28;20438;-72
2023/08/03 07:45:12;;;;;;;1.67;1.05;;;15.70;99.90;;;;;;5040434;28;20447;-72
2023/08/03 07:47:39;;;;;;;2.53;1.10;;;15.80;99.90;;;;;;5037373;28;20430;-73
2023/08/03 07:50:07;;;;;;;1.73;0.88;;;15.90;99.90;;;;;;5026859;28;20437;-74
2023/08/03 07:52:34;;;;;;;1.70;1.00;;;16.00;99.90;;;;;;5025789;28;20829;-73
2023/08/03 07:55:00;;;;;;;2.50;1.00;;;16.10;99.90;;;;;;5035060;28;20440;-74
2023/08/03 07:57:28;;;;;;;2.57;0.97;;;16.20;99.90;;;;;;5039884;28;20429;-73
2023/08/03 07:59:55;;;;;;;1.42;0.80;;;16.40;99.90;;;;;;5020603;28;20430;-72
2023/08/03 08:02:22;;;;;;;2.70;1.10;;;16.50;99.90;;;;;;5034764;28;20435;-73
2023/08/03 08:04:50;;;;;;;1.35;0.80;;;16.60;99.90;;;;;;5023861;28;20457;-73
2023/08/03 08:07:17;;;;;;;1.38;0.65;;;16.70;99.90;;;;;;5036459;28;20430;-74
2023/08/03 08:09:44;;;;;;;1.50;0.50;;;16.90;99.90;;;;;;5028587;28;20411;-73
2023/08/03 08:12:10;;;;;;;1.20;0.50;;;16.90;99.90;;;;;;5029619;28;20696;-73
2023/08/03 08:14:38;;;;;;;1.52;0.63;;;17.00;99.90;;;;;;5027411;28;20439;-72
2023/08/03 08:17:05;;;;;;;1.20;0.57;;;17.00;99.90;;;;;;5028949;28;20441;-73
2023/08/03 08:19:32;;;;;;;1.17;0.70;;;17.10;99.90;;;;;;5026111;28;20429;-74
2023/08/03 08:21:59;;;;;;;1.00;0.57;;;17.10;99.90;;;;;;5030788;28;20484;-73
2023/08/03 08:24:25;;;;;;;1.23;0.50;;;17.10;99.90;;;;;;5032275;28;20992;-73
2023/08/03 08:26:52;;;;;;;1.40;0.60;;;17.20;99.90;;;;;;5039801;28;20426;-73
2023/08/03 08:29:19;;;;;;;2.10;1.13;;;17.20;99.90;;;;;;5042301;28;20420;-74
2023/08/03 08:31:47;;;;;;;1.50;0.60;;;17.20;99.90;;;;;;5041712;28;20444;-74
2023/08/03 08:34:14;;;;;;;1.20;0.60;;;17.30;99.90;;;;;;5031977;28;20426;-75
2023/08/03 08:36:40;;;;;;;1.00;0.60;;;17.40;99.90;;;;;;5029623;28;20803;-73
2023/08/03 08:39:07;;;;;;;1.20;0.60;;;17.40;99.90;;;;;;5024160;28;20441;-74
2023/08/03 08:41:39;;;;;;;1.00;0.70;;;17.50;99.90;;;;;;5030350;28;20435;-74
2023/08/03 08:44:06;;;;;;;0.90;0.60;;;17.60;99.90;;;;;;5032325;28;20508;-75
2023/08/03 08:46:33;;;;;;;1.30;0.70;;;17.70;99.90;;;;;;5027516;28;20893;-74
2023/08/03 08:49:01;;;;;;;2.08;0.60;;;17.70;99.90;;;;;;5029924;28;20805;-74
2023/08/03 08:51:29;;;;;;;1.20;0.60;;;17.70;99.90;;;;;;5028813;28;20439;-74
2023/08/03 08:53:56;;;;;;;1.10;0.80;;;17.80;99.90;;;;;;5024638;28;20435;-74
2023/08/03 08:56:23;;;;;;;2.20;0.75;;;17.70;99.90;;;;;;5026711;28;20427;-75
2023/08/03 08:58:49;;;;;;;1.10;0.60;;;17.80;99.90;;;;;;5026965;28;20434;-74
2023/08/03 09:01:16;;;;;;;1.20;0.60;;;17.90;99.90;;;;;;5026503;28;20442;-74
2023/08/03 09:03:47;;;;;;;1.85;0.65;;;18.00;99.50;;;;;;5030253;28;20477;-74
2023/08/03 09:06:15;;;;;;;1.40;0.70;;;18.00;99.90;;;;;;5029995;28;20477;-74
2023/08/03 09:08:54;;;;;;;1.20;0.60;;;17.70;99.90;;;;;;5029227;28;20912;-74
2023/08/03 09:11:36;;;;;;;1.40;0.70;;;17.40;99.90;;;;;;5028071;28;20513;-73
2023/08/03 09:14:05;;;;;;;1.40;0.70;;;17.20;99.90;;;;;;5028927;28;20909;-73
2023/08/03 09:16:32;;;;;;;1.50;0.70;;;17.20;99.90;;;;;;5028575;28;20471;-73
2023/08/03 09:18:59;;;;;;;1.00;0.50;;;17.20;99.90;;;;;;5029716;28;20887;-73
2023/08/03 09:21:27;;;;;;;2.20;0.70;;;17.20;99.90;;;;;;5027127;28;20444;-73
2023/08/03 09:23:55;;;;;;;1.00;0.63;;;17.40;99.90;;;;;;5029148;28;20434;-74
2023/08/03 09:26:23;;;;;;;1.23;0.70;;;17.50;99.90;;;;;;5031880;28;20812;-73
2023/08/03 09:28:50;;;;;;;1.20;0.60;;;17.50;99.90;;;;;;5026377;28;20439;-71
2023/08/03 09:31:22;;;;;;;1.50;0.50;;;17.60;99.90;;;;;;5027497;28;20415;-73
2023/08/03 09:33:55;;;;;;;1.35;0.80;;;17.60;99.90;;;;;;5023125;28;20437;-75
2023/08/03 09:36:22;;;;;;;2.15;0.70;;;17.50;99.90;;;;;;5029035;28;20913;-74
2023/08/03 09:38:51;;;;;;;1.25;0.60;;;17.40;99.90;;;;;;5027922;28;20457;-74
2023/08/03 09:41:33;;;;;;;1.00;0.60;;;17.50;99.90;;;;;;5024750;28;20502;-74
2023/08/03 09:44:01;;;;;;;1.27;0.50;;;17.60;99.90;;;;;;5032407;28;20433;-74
2023/08/03 09:46:29;;;;;;;2.10;0.60;;;17.70;99.90;;;;;;5031464;28;20442;-73
2023/08/03 09:48:56;;;;;;;4.22;1.10;;;17.80;99.90;;;;;;5029188;28;20836;-73
2023/08/03 09:51:28;;;;;;;8.88;2.17;;;18.00;99.90;;;;;;5026254;28;20801;-73
2023/08/03 09:53:59;;;;;;;2.90;0.90;;;18.20;99.90;;;;;;5028171;28;20437;-74
2023/08/03 09:56:31;;;;;;;2.20;0.60;;;18.30;99.90;;;;;;5028398;28;20442;-74
2023/08/03 09:59:03;;;;;;;0.90;0.40;;;18.40;99.90;;;;;;5026321;28;20439;-74
2023/08/03 10:01:32;;;;;;;0.90;0.32;;;18.50;99.90;;;;;;5028131;28;20441;-74
2023/08/03 10:04:03;;;;;;;1.58;0.50;;;18.70;99.90;;;;;;5028254;28;20514;-73
2023/08/03 10:06:34;;;;;;;1.25;0.50;;;18.80;99.90;;;;;;5028047;28;20443;-74
2023/08/03 10:09:04;;;;;;;1.00;0.50;;;19.20;99.90;;;;;;5028109;28;20978;-74
2023/08/03 10:11:34;;;;;;;1.10;0.50;;;19.50;99.20;;;;;;5028355;28;20419;-74
2023/08/03 10:14:03;;;;;;;0.95;0.50;;;19.70;97.70;;;;;;5029176;28;20798;-73
2023/08/03 10:16:30;;;;;;;2.20;0.50;;;19.70;98.00;;;;;;5024014;28;20438;-74
2023/08/03 10:18:58;;;;;;;1.08;0.45;;;19.80;98.00;;;;;;5027448;28;20522;-74
2023/08/03 10:21:25;;;;;;;1.20;0.50;;;19.90;96.70;;;;;;5027610;28;20434;-74
2023/08/03 10:24:12;;;;;;;1.00;0.60;;;19.90;95.90;;;;;;5027525;28;20458;-74
2023/08/03 10:26:39;;;;;;;1.00;0.50;;;19.80;95.80;;;;;;5024383;28;20446;-73
2023/08/03 10:29:06;;;;;;;1.13;0.50;;;19.60;96.10;;;;;;5027984;28;20437;-74
2023/08/03 10:31:33;;;;;;;1.13;0.60;;;19.50;96.60;;;;;;5027102;28;20431;-73
2023/08/03 10:34:09;;;;;;;1.52;0.70;;;19.50;97.00;;;;;;5025905;28;20431;-73
2023/08/03 10:36:45;;;;;;;1.20;0.50;;;19.40;96.10;;;;;;5028559;28;20403;-73
2023/08/03 10:39:16;;;;;;;1.80;0.70;;;19.30;96.60;;;;;;5028370;28;20490;-73
2023/08/03 10:41:44;;;;;;;2.33;0.60;;;19.40;96.50;;;;;;5028988;28;20423;-74
2023/08/03 10:44:24;;;;;;;1.40;0.70;;;19.50;95.30;;;;;;5033563;28;20413;-74
2023/08/03 10:46:52;;;;;;;1.23;0.60;;;19.90;95.00;;;;;;5022861;28;20922;-75
2023/08/03 10:49:49;;;;;;;1.77;0.90;;;20.30;93.70;;;;;;5025912;28;20535;-74
2023/08/03 10:52:20;;;;;;;1.80;0.80;;;20.70;92.60;;;;;;5028049;28;20419;-73
2023/08/03 10:54:49;;;;;;;1.67;0.77;;;20.90;91.60;;;;;;5026133;28;20462;-74
2023/08/03 10:57:19;;;;;;;1.70;0.90;;;20.90;91.90;;;;;;5022294;28;20434;-73
2023/08/03 10:59:47;;;;;;;2.00;0.90;;;20.80;90.10;;;;;;5020405;28;20675;-74
2023/08/03 11:02:18;;;;;;;1.60;0.70;;;20.80;90.70;;;;;;5020963;28;20663;-74
2023/08/03 11:04:46;;;;;;;1.95;0.70;;;20.90;89.20;;;;;;5032295;28;20433;-74
2023/08/03 11:07:17;;;;;;;1.42;0.70;;;20.90;89.30;;;;;;5029161;28;20430;-73
2023/08/03 11:09:46;;;;;;;2.30;0.80;;;21.10;90.30;;;;;;5027925;28;20916;-73
2023/08/03 11:12:16;;;;;;;2.00;0.82;;;21.30;88.20;;;;;;5026660;28;20435;-73
2023/08/03 11:14:44;;;;;;;2.30;0.90;;;21.60;83.50;;;;;;5025187;28;20493;-74
2023/08/03 11:17:13;;;;;;;1.53;0.87;;;21.90;83.30;;;;;;5022852;28;20932;-74
2023/08/03 11:19:40;;;;;;;2.67;0.90;;;21.90;84.00;;;;;;5023059;28;20877;-73
2023/08/03 11:22:08;;;;;;;1.90;0.90;;;21.60;85.10;;;;;;5033614;28;20893;-73
2023/08/03 11:24:35;;;;;;;2.30;1.30;;;21.20;85.20;;;;;;5019121;28;20449;-73
2023/08/03 11:27:04;;;;;;;3.78;1.30;;;20.80;90.10;;;;;;5026911;28;20434;-73
2023/08/03 11:29:35;;;;;;;2.70;1.20;;;20.60;90.60;;;;;;5027015;28;20426;-72
2023/08/03 11:32:02;;;;;;;4.03;1.38;;;20.80;90.30;;;;;;5022683;28;20914;-72
2023/08/03 11:34:29;;;;;;;2.70;1.40;;;21.00;89.40;;;;;;5026787;28;20430;-74
2023/08/03 11:36:56;;;;;;;2.93;1.10;;;21.10;89.00;;;;;;5027218;28;20561;-72
2023/08/03 11:39:23;;;;;;;1.97;1.10;;;21.20;87.50;;;;;;5028013;28;20596;-74
2023/08/03 11:41:51;;;;;;;3.83;1.38;;;21.20;86.10;;;;;;5026917;28;20434;-73
2023/08/03 11:44:21;;;;;;;2.50;1.17;;;21.20;86.70;;;;;;5034328;28;20413;-74
2023/08/03 11:46:49;;;;;;;3.60;1.30;;;21.10;86.20;;;;;;5023910;28;20433;-73
2023/08/03 11:49:18;;;;;;;2.50;1.13;;;20.90;85.50;;;;;;5025433;28;20518;-72
2023/08/03 11:51:48;;;;;;;2.63;0.90;;;20.90;86.60;;;;;;5025109;28;20901;-73
2023/08/03 11:54:24;;;;;;;2.53;0.95;;;20.90;85.70;;;;;;5027814;28;20419;-72
2023/08/03 11:56:51;;;;;;;2.13;1.40;;;20.90;85.90;;;;;;5027950;28;20415;-73
2023/08/03 11:59:16;;;;;;;2.22;1.00;;;21.00;86.90;;;;;;5026949;28;20427;-73
2023/08/03 12:01:45;;;;;;;3.13;1.20;;;21.30;85.90;;;;;;5025699;28;20801;-72
2023/08/03 12:04:13;;;;;;;3.25;1.20;;;21.60;83.00;;;;;;5028974;28;20426;-73
2023/08/03 12:06:47;;;;;;;3.37;1.20;;;21.70;82.60;;;;;;5031531;28;20874;-73
2023/08/03 12:09:22;;;;;;;3.10;1.17;;;21.70;81.60;;;;;;5030965;28;20430;-73
2023/08/03 12:11:49;;;;;;;3.08;1.50;;;21.60;82.70;;;;;;5025991;28;20442;-73
2023/08/03 12:14:17;;;;;;;2.47;1.42;;;21.40;83.40;;;;;;5028514;28;20605;-70
2023/08/03 12:16:44;;;;;;;3.05;1.20;;;21.20;84.60;;;;;;5029786;28;20461;-71
2023/08/03 12:19:10;;;;;;;3.22;1.33;;;21.10;86.20;;;;;;5028994;28;20438;-73
2023/08/03 12:21:39;;;;;;;3.33;0.90;;;21.10;85.10;;;;;;5029911;28;20458;-72
2023/08/03 12:24:07;;;;;;;2.13;1.00;;;21.20;84.20;;;;;;5026580;28;20812;-71
2023/08/03 12:26:34;;;;;;;1.02;0.70;;;21.30;82.30;;;;;;5033032;23;20442;-70
2023/08/03 12:29:03;;;;;;;2.50;1.20;;;21.30;82.40;;;;;;5020103;28;20431;-75
2023/08/03 12:31:31;;;;;;;1.13;0.95;;;21.50;82.40;;;;;;5019987;28;20896;-67
2023/08/03 12:33:58;;;;;;;3.88;1.08;;;21.90;80.30;;;;;;5024767;28;20427;-66
2023/08/03 12:36:25;;;;;;;1.60;0.90;;;22.20;80.00;;;;;;5003573;28;20500;-68
2023/08/03 12:38:53;;;;;;;1.52;0.80;;;22.70;76.30;;;;;;4998906;28;22515;-71
2023/08/03 12:41:22;;;;;;;1.40;0.60;;;23.00;75.50;;;;;;5003149;28;20792;-70
2023/08/03 12:43:49;;;;;;;3.07;0.70;;;23.40;72.90;;;;;;5002921;28;20435;-70
2023/08/03 12:46:16;;;;;;;2.00;0.80;;;23.60;71.80;;;;;;4999049;28;20452;-68
2023/08/03 12:48:43;;;;;;;2.88;1.00;;;23.70;72.80;;;;;;4999551;28;20428;-69
2023/08/03 12:51:10;;;;;;;3.80;1.02;;;23.70;70.90;;;;;;4997095;28;20459;-69